sensor_id;sensor_type;location;lat;lon;timestamp;P1;durP1;ratioP1;P2;durP2;ratioP2
36989;SDS011;22898;52.102;5.776;2023-09-30T00:00:43;8.57;;;2.25;;
36989;SDS011;22898;52.102;5.776;2023-09-30T00:03:09;2.95;;;1.60;;
36989;SDS011;22898;52.102;5.776;2023-09-30T00:05:36;8.15;;;1.73;;
36989;SDS011;22898;52.102;5.776;2023-09-30T00:08:03;5.40;;;1.80;;
36989;SDS011;22898;52.102;5.776;2023-09-30T00:10:29;4.95;;;1.90;;
36989;SDS011;22898;52.102;5.776;2023-09-30T00:12:55;6.82;;;1.58;;
36989;SDS011;22898;52.102;5.776;2023-09-30T00:15:21;5.82;;;1.60;;
36989;SDS011;22898;52.102;5.776;2023-09-30T00:17:47;4.07;;;1.88;;
36989;SDS011;22898;52.102;5.776;2023-09-30T00:20:13;6.07;;;2.53;;
36989;SDS011;22898;52.102;5.776;2023-09-30T00:22:39;10.63;;;2.40;;
36989;SDS011;22898;52.102;5.776;2023-09-30T00:25:06;8.23;;;2.55;;
36989;SDS011;22898;52.102;5.776;2023-09-30T00:27:32;6.53;;;2.25;;
36989;SDS011;22898;52.102;5.776;2023-09-30T00:29:58;4.80;;;2.10;;
36989;SDS011;22898;52.102;5.776;2023-09-30T00:32:23;6.82;;;3.15;;
36989;SDS011;22898;52.102;5.776;2023-09-30T00:34:49;9.52;;;2.30;;
36989;SDS011;22898;52.102;5.776;2023-09-30T00:37:17;5.57;;;1.92;;
36989;SDS011;22898;52.102;5.776;2023-09-30T00:39:42;4.85;;;2.55;;
36989;SDS011;22898;52.102;5.776;2023-09-30T00:42:09;4.78;;;2.28;;
36989;SDS011;22898;52.102;5.776;2023-09-30T00:44:35;4.88;;;2.55;;
36989;SDS011;22898;52.102;5.776;2023-09-30T00:47:01;13.07;;;2.60;;
36989;SDS011;22898;52.102;5.776;2023-09-30T00:49:26;5.68;;;2.50;;
36989;SDS011;22898;52.102;5.776;2023-09-30T00:51:54;8.27;;;3.10;;
36989;SDS011;22898;52.102;5.776;2023-09-30T00:54:20;9.65;;;2.95;;
36989;SDS011;22898;52.102;5.776;2023-09-30T00:56:47;7.07;;;2.40;;
36989;SDS011;22898;52.102;5.776;2023-09-30T00:59:15;7.40;;;3.03;;
36989;SDS011;22898;52.102;5.776;2023-09-30T01:01:42;4.22;;;2.30;;
36989;SDS011;22898;52.102;5.776;2023-09-30T01:04:09;11.48;;;2.72;;
36989;SDS011;22898;52.102;5.776;2023-09-30T01:06:39;5.65;;;2.38;;
36989;SDS011;22898;52.102;5.776;2023-09-30T01:09:04;6.88;;;2.10;;
36989;SDS011;22898;52.102;5.776;2023-09-30T01:11:30;5.30;;;2.38;;
36989;SDS011;22898;52.102;5.776;2023-09-30T01:13:56;6.22;;;2.92;;
36989;SDS011;22898;52.102;5.776;2023-09-30T01:16:22;6.55;;;2.70;;
36989;SDS011;22898;52.102;5.776;2023-09-30T01:18:48;4.28;;;2.40;;
36989;SDS011;22898;52.102;5.776;2023-09-30T01:21:14;6.15;;;2.75;;
36989;SDS011;22898;52.102;5.776;2023-09-30T01:23:40;6.00;;;2.10;;
36989;SDS011;22898;52.102;5.776;2023-09-30T01:26:09;4.88;;;2.17;;
36989;SDS011;22898;52.102;5.776;2023-09-30T01:28:39;5.25;;;2.20;;
36989;SDS011;22898;52.102;5.776;2023-09-30T01:31:08;8.10;;;2.88;;
36989;SDS011;22898;52.102;5.776;2023-09-30T01:33:34;4.28;;;2.13;;
36989;SDS011;22898;52.102;5.776;2023-09-30T01:36:00;7.82;;;2.78;;
36989;SDS011;22898;52.102;5.776;2023-09-30T01:38:25;4.10;;;2.35;;
36989;SDS011;22898;52.102;5.776;2023-09-30T01:40:51;7.82;;;2.30;;
36989;SDS011;22898;52.102;5.776;2023-09-30T01:43:17;4.18;;;2.05;;
36989;SDS011;22898;52.102;5.776;2023-09-30T01:45:42;4.20;;;2.25;;
36989;SDS011;22898;52.102;5.776;2023-09-30T01:48:09;8.13;;;2.63;;
36989;SDS011;22898;52.102;5.776;2023-09-30T01:50:39;5.85;;;2.25;;
36989;SDS011;22898;52.102;5.776;2023-09-30T01:53:05;7.05;;;3.55;;
36989;SDS011;22898;52.102;5.776;2023-09-30T01:55:32;7.55;;;3.28;;
36989;SDS011;22898;52.102;5.776;2023-09-30T01:57:58;10.10;;;2.90;;
36989;SDS011;22898;52.102;5.776;2023-09-30T02:00:24;4.43;;;2.50;;
36989;SDS011;22898;52.102;5.776;2023-09-30T02:02:50;7.40;;;2.47;;
36989;SDS011;22898;52.102;5.776;2023-09-30T02:05:15;6.88;;;2.55;;
36989;SDS011;22898;52.102;5.776;2023-09-30T02:07:41;3.60;;;2.50;;
36989;SDS011;22898;52.102;5.776;2023-09-30T02:10:07;8.82;;;2.90;;
36989;SDS011;22898;52.102;5.776;2023-09-30T02:12:33;7.22;;;2.92;;
36989;SDS011;22898;52.102;5.776;2023-09-30T02:14:58;8.73;;;2.85;;
36989;SDS011;22898;52.102;5.776;2023-09-30T02:17:24;5.80;;;2.55;;
36989;SDS011;22898;52.102;5.776;2023-09-30T02:19:50;6.47;;;3.75;;
36989;SDS011;22898;52.102;5.776;2023-09-30T02:22:15;8.68;;;2.85;;
36989;SDS011;22898;52.102;5.776;2023-09-30T02:24:41;8.10;;;3.33;;
36989;SDS011;22898;52.102;5.776;2023-09-30T02:27:06;7.22;;;2.88;;
36989;SDS011;22898;52.102;5.776;2023-09-30T02:29:33;8.60;;;3.70;;
36989;SDS011;22898;52.102;5.776;2023-09-30T02:31:58;6.60;;;2.25;;
36989;SDS011;22898;52.102;5.776;2023-09-30T02:34:24;7.03;;;3.20;;
36989;SDS011;22898;52.102;5.776;2023-09-30T02:36:49;8.57;;;3.05;;
36989;SDS011;22898;52.102;5.776;2023-09-30T02:39:15;6.32;;;2.50;;
36989;SDS011;22898;52.102;5.776;2023-09-30T02:41:41;7.25;;;2.60;;
36989;SDS011;22898;52.102;5.776;2023-09-30T02:44:08;6.88;;;3.28;;
36989;SDS011;22898;52.102;5.776;2023-09-30T02:46:33;4.07;;;2.38;;
36989;SDS011;22898;52.102;5.776;2023-09-30T02:49:00;4.47;;;2.65;;
36989;SDS011;22898;52.102;5.776;2023-09-30T02:51:27;5.90;;;3.25;;
36989;SDS011;22898;52.102;5.776;2023-09-30T02:53:53;6.00;;;2.67;;
36989;SDS011;22898;52.102;5.776;2023-09-30T02:56:18;6.28;;;2.50;;
36989;SDS011;22898;52.102;5.776;2023-09-30T02:58:45;3.60;;;2.15;;
36989;SDS011;22898;52.102;5.776;2023-09-30T03:01:14;8.32;;;2.83;;
36989;SDS011;22898;52.102;5.776;2023-09-30T03:03:44;8.63;;;2.50;;
36989;SDS011;22898;52.102;5.776;2023-09-30T03:06:10;6.22;;;2.90;;
36989;SDS011;22898;52.102;5.776;2023-09-30T03:08:36;7.35;;;2.83;;
36989;SDS011;22898;52.102;5.776;2023-09-30T03:11:02;6.50;;;3.08;;
36989;SDS011;22898;52.102;5.776;2023-09-30T03:13:28;4.38;;;2.15;;
36989;SDS011;22898;52.102;5.776;2023-09-30T03:15:54;6.25;;;2.83;;
36989;SDS011;22898;52.102;5.776;2023-09-30T03:18:21;7.25;;;2.90;;
36989;SDS011;22898;52.102;5.776;2023-09-30T03:20:51;14.20;;;3.03;;
36989;SDS011;22898;52.102;5.776;2023-09-30T03:23:21;8.55;;;2.60;;
36989;SDS011;22898;52.102;5.776;2023-09-30T03:25:47;6.32;;;3.10;;
36989;SDS011;22898;52.102;5.776;2023-09-30T03:28:13;9.00;;;2.95;;
36989;SDS011;22898;52.102;5.776;2023-09-30T03:30:40;10.90;;;3.20;;
36989;SDS011;22898;52.102;5.776;2023-09-30T03:33:08;9.45;;;2.90;;
36989;SDS011;22898;52.102;5.776;2023-09-30T03:35:34;6.15;;;2.75;;
36989;SDS011;22898;52.102;5.776;2023-09-30T03:38:01;6.95;;;2.97;;
36989;SDS011;22898;52.102;5.776;2023-09-30T03:40:27;7.35;;;3.08;;
36989;SDS011;22898;52.102;5.776;2023-09-30T03:42:57;6.75;;;3.63;;
36989;SDS011;22898;52.102;5.776;2023-09-30T03:45:23;7.35;;;3.97;;
36989;SDS011;22898;52.102;5.776;2023-09-30T03:47:49;7.22;;;3.20;;
36989;SDS011;22898;52.102;5.776;2023-09-30T03:50:15;8.05;;;3.58;;
36989;SDS011;22898;52.102;5.776;2023-09-30T03:52:41;9.20;;;3.30;;
36989;SDS011;22898;52.102;5.776;2023-09-30T03:55:11;7.60;;;3.03;;
36989;SDS011;22898;52.102;5.776;2023-09-30T03:57:37;4.90;;;2.78;;
36989;SDS011;22898;52.102;5.776;2023-09-30T04:00:03;5.88;;;2.90;;
36989;SDS011;22898;52.102;5.776;2023-09-30T04:02:31;7.47;;;2.97;;
36989;SDS011;22898;52.102;5.776;2023-09-30T04:04:57;4.97;;;2.83;;
36989;SDS011;22898;52.102;5.776;2023-09-30T04:07:24;7.82;;;3.10;;
36989;SDS011;22898;52.102;5.776;2023-09-30T04:09:52;6.70;;;3.00;;
36989;SDS011;22898;52.102;5.776;2023-09-30T04:12:21;8.63;;;3.05;;
36989;SDS011;22898;52.102;5.776;2023-09-30T04:14:48;6.57;;;2.83;;
36989;SDS011;22898;52.102;5.776;2023-09-30T04:17:14;6.40;;;3.20;;
36989;SDS011;22898;52.102;5.776;2023-09-30T04:19:40;6.35;;;2.55;;
36989;SDS011;22898;52.102;5.776;2023-09-30T04:22:06;8.57;;;3.10;;
36989;SDS011;22898;52.102;5.776;2023-09-30T04:24:32;6.68;;;3.30;;
36989;SDS011;22898;52.102;5.776;2023-09-30T04:26:57;8.98;;;3.13;;
36989;SDS011;22898;52.102;5.776;2023-09-30T04:29:28;6.78;;;2.97;;
36989;SDS011;22898;52.102;5.776;2023-09-30T04:31:54;5.88;;;3.20;;
36989;SDS011;22898;52.102;5.776;2023-09-30T04:34:23;8.50;;;3.28;;
36989;SDS011;22898;52.102;5.776;2023-09-30T04:36:49;4.28;;;2.92;;
36989;SDS011;22898;52.102;5.776;2023-09-30T04:39:14;7.82;;;3.97;;
36989;SDS011;22898;52.102;5.776;2023-09-30T04:41:43;7.70;;;3.75;;
36989;SDS011;22898;52.102;5.776;2023-09-30T04:44:09;7.40;;;3.88;;
36989;SDS011;22898;52.102;5.776;2023-09-30T04:46:35;7.07;;;3.53;;
36989;SDS011;22898;52.102;5.776;2023-09-30T04:49:06;9.52;;;4.38;;
36989;SDS011;22898;52.102;5.776;2023-09-30T04:51:33;8.07;;;4.20;;
36989;SDS011;22898;52.102;5.776;2023-09-30T04:53:59;5.80;;;3.38;;
36989;SDS011;22898;52.102;5.776;2023-09-30T04:56:25;9.63;;;3.80;;
36989;SDS011;22898;52.102;5.776;2023-09-30T04:58:50;8.43;;;3.95;;
36989;SDS011;22898;52.102;5.776;2023-09-30T05:01:16;8.68;;;3.88;;
36989;SDS011;22898;52.102;5.776;2023-09-30T05:03:43;8.57;;;3.63;;
36989;SDS011;22898;52.102;5.776;2023-09-30T05:06:09;6.97;;;3.53;;
36989;SDS011;22898;52.102;5.776;2023-09-30T05:08:35;9.48;;;3.47;;
36989;SDS011;22898;52.102;5.776;2023-09-30T05:11:00;5.88;;;3.47;;
36989;SDS011;22898;52.102;5.776;2023-09-30T05:13:26;9.70;;;4.15;;
36989;SDS011;22898;52.102;5.776;2023-09-30T05:15:51;11.18;;;4.32;;
36989;SDS011;22898;52.102;5.776;2023-09-30T05:18:18;6.15;;;3.85;;
36989;SDS011;22898;52.102;5.776;2023-09-30T05:20:43;5.88;;;3.13;;
36989;SDS011;22898;52.102;5.776;2023-09-30T05:23:09;9.98;;;4.75;;
36989;SDS011;22898;52.102;5.776;2023-09-30T05:25:38;7.97;;;4.38;;
36989;SDS011;22898;52.102;5.776;2023-09-30T05:28:05;9.98;;;3.85;;
36989;SDS011;22898;52.102;5.776;2023-09-30T05:30:31;6.30;;;3.67;;
36989;SDS011;22898;52.102;5.776;2023-09-30T05:32:58;10.52;;;4.18;;
36989;SDS011;22898;52.102;5.776;2023-09-30T05:35:25;11.25;;;4.10;;
36989;SDS011;22898;52.102;5.776;2023-09-30T05:37:51;9.18;;;4.32;;
36989;SDS011;22898;52.102;5.776;2023-09-30T05:40:19;8.02;;;3.83;;
36989;SDS011;22898;52.102;5.776;2023-09-30T05:42:53;8.95;;;4.03;;
36989;SDS011;22898;52.102;5.776;2023-09-30T05:45:21;9.95;;;3.97;;
36989;SDS011;22898;52.102;5.776;2023-09-30T05:47:48;7.28;;;3.78;;
36989;SDS011;22898;52.102;5.776;2023-09-30T05:50:14;7.10;;;3.97;;
36989;SDS011;22898;52.102;5.776;2023-09-30T05:52:42;7.53;;;3.40;;
36989;SDS011;22898;52.102;5.776;2023-09-30T05:55:08;7.68;;;3.58;;
36989;SDS011;22898;52.102;5.776;2023-09-30T05:57:34;7.75;;;4.10;;
36989;SDS011;22898;52.102;5.776;2023-09-30T06:00:00;10.23;;;4.35;;
36989;SDS011;22898;52.102;5.776;2023-09-30T06:02:26;8.30;;;3.58;;
36989;SDS011;22898;52.102;5.776;2023-09-30T06:04:51;8.05;;;3.88;;
36989;SDS011;22898;52.102;5.776;2023-09-30T06:07:18;14.18;;;4.40;;
36989;SDS011;22898;52.102;5.776;2023-09-30T06:09:45;5.93;;;3.90;;
36989;SDS011;22898;52.102;5.776;2023-09-30T06:12:13;7.68;;;3.78;;
36989;SDS011;22898;52.102;5.776;2023-09-30T06:14:39;7.75;;;3.47;;
36989;SDS011;22898;52.102;5.776;2023-09-30T06:17:05;6.07;;;3.10;;
36989;SDS011;22898;52.102;5.776;2023-09-30T06:19:32;6.72;;;3.88;;
36989;SDS011;22898;52.102;5.776;2023-09-30T06:21:57;7.57;;;3.80;;
36989;SDS011;22898;52.102;5.776;2023-09-30T06:24:24;7.85;;;4.18;;
36989;SDS011;22898;52.102;5.776;2023-09-30T06:26:49;9.52;;;4.55;;
36989;SDS011;22898;52.102;5.776;2023-09-30T06:29:16;8.27;;;4.78;;
36989;SDS011;22898;52.102;5.776;2023-09-30T06:31:42;8.27;;;5.43;;
36989;SDS011;22898;52.102;5.776;2023-09-30T06:34:08;10.00;;;4.55;;
36989;SDS011;22898;52.102;5.776;2023-09-30T06:36:36;10.35;;;5.05;;
36989;SDS011;22898;52.102;5.776;2023-09-30T06:39:02;11.00;;;5.28;;
36989;SDS011;22898;52.102;5.776;2023-09-30T06:41:30;8.38;;;4.43;;
36989;SDS011;22898;52.102;5.776;2023-09-30T06:43:56;10.77;;;4.82;;
36989;SDS011;22898;52.102;5.776;2023-09-30T06:46:22;9.38;;;4.38;;
36989;SDS011;22898;52.102;5.776;2023-09-30T06:48:49;8.93;;;4.10;;
36989;SDS011;22898;52.102;5.776;2023-09-30T06:51:17;10.52;;;4.85;;
36989;SDS011;22898;52.102;5.776;2023-09-30T06:53:42;8.07;;;4.60;;
36989;SDS011;22898;52.102;5.776;2023-09-30T06:56:08;10.07;;;5.15;;
36989;SDS011;22898;52.102;5.776;2023-09-30T06:58:34;15.35;;;5.07;;
36989;SDS011;22898;52.102;5.776;2023-09-30T07:01:00;13.40;;;6.10;;
36989;SDS011;22898;52.102;5.776;2023-09-30T07:03:26;12.30;;;5.10;;
36989;SDS011;22898;52.102;5.776;2023-09-30T07:05:52;11.77;;;5.88;;
36989;SDS011;22898;52.102;5.776;2023-09-30T07:08:19;12.63;;;5.60;;
36989;SDS011;22898;52.102;5.776;2023-09-30T07:10:46;9.02;;;5.25;;
36989;SDS011;22898;52.102;5.776;2023-09-30T07:13:14;11.38;;;5.55;;
36989;SDS011;22898;52.102;5.776;2023-09-30T07:15:41;10.52;;;5.72;;
36989;SDS011;22898;52.102;5.776;2023-09-30T07:18:06;9.50;;;4.97;;
36989;SDS011;22898;52.102;5.776;2023-09-30T07:20:32;11.38;;;6.07;;
36989;SDS011;22898;52.102;5.776;2023-09-30T07:23:01;12.00;;;6.05;;
36989;SDS011;22898;52.102;5.776;2023-09-30T07:25:28;11.50;;;4.88;;
36989;SDS011;22898;52.102;5.776;2023-09-30T07:27:56;10.88;;;5.93;;
36989;SDS011;22898;52.102;5.776;2023-09-30T07:30:22;10.00;;;5.63;;
36989;SDS011;22898;52.102;5.776;2023-09-30T07:32:48;13.75;;;6.70;;
36989;SDS011;22898;52.102;5.776;2023-09-30T07:35:15;12.70;;;6.28;;
36989;SDS011;22898;52.102;5.776;2023-09-30T07:37:41;13.88;;;5.47;;
36989;SDS011;22898;52.102;5.776;2023-09-30T07:40:07;11.68;;;6.15;;
36989;SDS011;22898;52.102;5.776;2023-09-30T07:42:35;13.88;;;6.20;;
36989;SDS011;22898;52.102;5.776;2023-09-30T07:45:01;14.55;;;5.97;;
36989;SDS011;22898;52.102;5.776;2023-09-30T07:47:30;12.00;;;5.75;;
36989;SDS011;22898;52.102;5.776;2023-09-30T07:49:59;11.13;;;7.07;;
36989;SDS011;22898;52.102;5.776;2023-09-30T07:52:27;16.00;;;6.30;;
36989;SDS011;22898;52.102;5.776;2023-09-30T07:54:53;11.50;;;6.70;;
36989;SDS011;22898;52.102;5.776;2023-09-30T07:57:18;14.82;;;6.82;;
36989;SDS011;22898;52.102;5.776;2023-09-30T07:59:45;13.68;;;7.53;;
36989;SDS011;22898;52.102;5.776;2023-09-30T08:02:11;12.02;;;5.90;;
36989;SDS011;22898;52.102;5.776;2023-09-30T08:04:36;13.35;;;6.18;;
36989;SDS011;22898;52.102;5.776;2023-09-30T08:07:02;15.55;;;6.35;;
36989;SDS011;22898;52.102;5.776;2023-09-30T08:09:28;11.50;;;6.47;;
36989;SDS011;22898;52.102;5.776;2023-09-30T08:11:53;13.40;;;6.22;;
36989;SDS011;22898;52.102;5.776;2023-09-30T08:14:19;12.30;;;6.38;;
36989;SDS011;22898;52.102;5.776;2023-09-30T08:16:45;14.40;;;6.35;;
36989;SDS011;22898;52.102;5.776;2023-09-30T08:19:10;11.48;;;7.07;;
36989;SDS011;22898;52.102;5.776;2023-09-30T08:21:36;14.88;;;6.47;;
36989;SDS011;22898;52.102;5.776;2023-09-30T08:24:02;14.98;;;6.05;;
36989;SDS011;22898;52.102;5.776;2023-09-30T08:26:27;9.23;;;5.93;;
36989;SDS011;22898;52.102;5.776;2023-09-30T08:28:53;10.25;;;5.43;;
36989;SDS011;22898;52.102;5.776;2023-09-30T08:31:19;8.32;;;4.90;;
36989;SDS011;22898;52.102;5.776;2023-09-30T08:33:46;13.80;;;6.22;;
36989;SDS011;22898;52.102;5.776;2023-09-30T08:36:12;13.85;;;6.32;;
36989;SDS011;22898;52.102;5.776;2023-09-30T08:38:39;9.98;;;5.32;;
36989;SDS011;22898;52.102;5.776;2023-09-30T08:41:06;15.85;;;5.95;;
36989;SDS011;22898;52.102;5.776;2023-09-30T08:43:39;13.10;;;5.40;;
36989;SDS011;22898;52.102;5.776;2023-09-30T08:46:06;11.98;;;5.22;;
36989;SDS011;22898;52.102;5.776;2023-09-30T08:48:32;9.55;;;5.95;;
36989;SDS011;22898;52.102;5.776;2023-09-30T08:50:59;13.55;;;6.00;;
36989;SDS011;22898;52.102;5.776;2023-09-30T08:53:25;10.05;;;5.40;;
36989;SDS011;22898;52.102;5.776;2023-09-30T08:55:55;11.00;;;5.07;;
36989;SDS011;22898;52.102;5.776;2023-09-30T08:58:26;17.52;;;5.85;;
36989;SDS011;22898;52.102;5.776;2023-09-30T09:00:53;10.90;;;5.18;;
36989;SDS011;22898;52.102;5.776;2023-09-30T09:03:19;10.40;;;4.50;;
36989;SDS011;22898;52.102;5.776;2023-09-30T09:05:45;8.30;;;4.18;;
36989;SDS011;22898;52.102;5.776;2023-09-30T09:08:25;11.68;;;5.45;;
36989;SDS011;22898;52.102;5.776;2023-09-30T09:10:57;9.70;;;5.28;;
36989;SDS011;22898;52.102;5.776;2023-09-30T09:13:24;12.87;;;5.03;;
36989;SDS011;22898;52.102;5.776;2023-09-30T09:16:05;7.70;;;4.20;;
36989;SDS011;22898;52.102;5.776;2023-09-30T09:18:33;7.93;;;4.38;;
36989;SDS011;22898;52.102;5.776;2023-09-30T09:21:12;10.73;;;4.47;;
36989;SDS011;22898;52.102;5.776;2023-09-30T09:23:42;9.95;;;3.72;;
36989;SDS011;22898;52.102;5.776;2023-09-30T09:26:10;10.43;;;3.95;;
36989;SDS011;22898;52.102;5.776;2023-09-30T09:28:36;10.45;;;4.22;;
36989;SDS011;22898;52.102;5.776;2023-09-30T09:31:23;9.20;;;3.75;;
36989;SDS011;22898;52.102;5.776;2023-09-30T09:33:50;10.48;;;4.43;;
36989;SDS011;22898;52.102;5.776;2023-09-30T09:36:16;13.77;;;3.90;;
36989;SDS011;22898;52.102;5.776;2023-09-30T09:38:48;11.45;;;4.18;;
36989;SDS011;22898;52.102;5.776;2023-09-30T09:41:15;9.50;;;3.72;;
36989;SDS011;22898;52.102;5.776;2023-09-30T09:43:41;10.02;;;4.55;;
36989;SDS011;22898;52.102;5.776;2023-09-30T09:46:08;6.47;;;3.13;;
36989;SDS011;22898;52.102;5.776;2023-09-30T09:48:36;8.45;;;3.92;;
36989;SDS011;22898;52.102;5.776;2023-09-30T09:51:02;8.82;;;3.85;;
36989;SDS011;22898;52.102;5.776;2023-09-30T09:53:30;6.82;;;3.55;;
36989;SDS011;22898;52.102;5.776;2023-09-30T09:55:59;7.00;;;4.55;;
36989;SDS011;22898;52.102;5.776;2023-09-30T09:58:25;9.70;;;3.60;;
36989;SDS011;22898;52.102;5.776;2023-09-30T10:00:52;8.27;;;4.28;;
36989;SDS011;22898;52.102;5.776;2023-09-30T10:03:18;7.50;;;3.60;;
36989;SDS011;22898;52.102;5.776;2023-09-30T10:05:43;7.60;;;3.53;;
36989;SDS011;22898;52.102;5.776;2023-09-30T10:08:14;7.65;;;3.83;;
36989;SDS011;22898;52.102;5.776;2023-09-30T10:10:43;11.97;;;3.63;;
36989;SDS011;22898;52.102;5.776;2023-09-30T10:13:27;7.55;;;3.90;;
36989;SDS011;22898;52.102;5.776;2023-09-30T10:19:08;11.27;;;4.25;;
36989;SDS011;22898;52.102;5.776;2023-09-30T10:24:47;7.30;;;3.80;;
36989;SDS011;22898;52.102;5.776;2023-09-30T10:37:52;8.23;;;3.15;;
36989;SDS011;22898;52.102;5.776;2023-09-30T10:40:47;7.18;;;3.03;;
36989;SDS011;22898;52.102;5.776;2023-09-30T10:43:35;12.10;;;3.22;;
36989;SDS011;22898;52.102;5.776;2023-09-30T10:46:48;6.47;;;2.97;;
36989;SDS011;22898;52.102;5.776;2023-09-30T10:48:55;6.80;;;3.47;;
36989;SDS011;22898;52.102;5.776;2023-09-30T10:51:22;6.03;;;2.50;;
36989;SDS011;22898;52.102;5.776;2023-09-30T10:53:48;8.18;;;3.33;;
36989;SDS011;22898;52.102;5.776;2023-09-30T10:56:21;9.23;;;2.95;;
36989;SDS011;22898;52.102;5.776;2023-09-30T10:58:51;8.73;;;2.97;;
36989;SDS011;22898;52.102;5.776;2023-09-30T11:01:18;5.45;;;2.58;;
36989;SDS011;22898;52.102;5.776;2023-09-30T11:03:45;8.88;;;2.83;;
36989;SDS011;22898;52.102;5.776;2023-09-30T11:06:13;5.32;;;2.65;;
36989;SDS011;22898;52.102;5.776;2023-09-30T11:08:53;9.40;;;3.00;;
36989;SDS011;22898;52.102;5.776;2023-09-30T11:11:31;5.07;;;2.28;;
36989;SDS011;22898;52.102;5.776;2023-09-30T11:14:16;5.15;;;2.28;;
36989;SDS011;22898;52.102;5.776;2023-09-30T11:16:52;9.20;;;3.30;;
36989;SDS011;22898;52.102;5.776;2023-09-30T11:19:19;9.38;;;2.22;;
36989;SDS011;22898;52.102;5.776;2023-09-30T11:21:52;10.23;;;2.97;;
36989;SDS011;22898;52.102;5.776;2023-09-30T11:24:18;9.23;;;2.38;;
36989;SDS011;22898;52.102;5.776;2023-09-30T11:26:44;12.07;;;3.05;;
36989;SDS011;22898;52.102;5.776;2023-09-30T11:29:12;3.00;;;1.67;;
36989;SDS011;22898;52.102;5.776;2023-09-30T11:31:41;6.72;;;1.85;;
36989;SDS011;22898;52.102;5.776;2023-09-30T11:34:13;4.75;;;2.30;;
36989;SDS011;22898;52.102;5.776;2023-09-30T11:36:52;5.80;;;2.10;;
36989;SDS011;22898;52.102;5.776;2023-09-30T11:39:28;6.47;;;2.20;;
36989;SDS011;22898;52.102;5.776;2023-09-30T11:41:54;7.38;;;1.65;;
36989;SDS011;22898;52.102;5.776;2023-09-30T11:44:22;11.75;;;2.00;;
36989;SDS011;22898;52.102;5.776;2023-09-30T11:46:58;5.50;;;2.10;;
36989;SDS011;22898;52.102;5.776;2023-09-30T11:49:35;7.93;;;2.55;;
36989;SDS011;22898;52.102;5.776;2023-09-30T11:52:13;5.93;;;2.92;;
36989;SDS011;22898;52.102;5.776;2023-09-30T11:54:41;4.38;;;2.67;;
36989;SDS011;22898;52.102;5.776;2023-09-30T11:57:11;4.22;;;1.55;;
36989;SDS011;22898;52.102;5.776;2023-09-30T11:59:41;7.78;;;2.75;;
36989;SDS011;22898;52.102;5.776;2023-09-30T12:02:11;5.82;;;1.80;;
36989;SDS011;22898;52.102;5.776;2023-09-30T12:04:37;6.20;;;1.80;;
36989;SDS011;22898;52.102;5.776;2023-09-30T12:07:04;3.70;;;1.77;;
36989;SDS011;22898;52.102;5.776;2023-09-30T12:09:31;8.90;;;2.30;;
36989;SDS011;22898;52.102;5.776;2023-09-30T12:11:57;7.40;;;1.60;;
36989;SDS011;22898;52.102;5.776;2023-09-30T12:14:23;4.07;;;1.63;;
36989;SDS011;22898;52.102;5.776;2023-09-30T12:16:49;3.80;;;1.40;;
36989;SDS011;22898;52.102;5.776;2023-09-30T12:19:16;8.73;;;1.88;;
36989;SDS011;22898;52.102;5.776;2023-09-30T12:21:45;9.60;;;1.73;;
36989;SDS011;22898;52.102;5.776;2023-09-30T12:24:13;7.55;;;2.13;;
36989;SDS011;22898;52.102;5.776;2023-09-30T12:26:42;4.50;;;1.60;;
36989;SDS011;22898;52.102;5.776;2023-09-30T12:29:15;7.53;;;1.98;;
36989;SDS011;22898;52.102;5.776;2023-09-30T12:31:46;3.67;;;1.50;;
36989;SDS011;22898;52.102;5.776;2023-09-30T12:34:13;7.80;;;1.77;;
36989;SDS011;22898;52.102;5.776;2023-09-30T12:36:39;4.45;;;2.10;;
36989;SDS011;22898;52.102;5.776;2023-09-30T12:39:06;3.35;;;1.63;;
36989;SDS011;22898;52.102;5.776;2023-09-30T12:41:44;6.45;;;1.65;;
36989;SDS011;22898;52.102;5.776;2023-09-30T12:44:10;5.13;;;1.90;;
36989;SDS011;22898;52.102;5.776;2023-09-30T12:46:36;4.47;;;1.80;;
36989;SDS011;22898;52.102;5.776;2023-09-30T12:49:04;4.93;;;1.70;;
36989;SDS011;22898;52.102;5.776;2023-09-30T12:51:33;5.57;;;2.20;;
36989;SDS011;22898;52.102;5.776;2023-09-30T12:54:00;17.98;;;2.70;;
36989;SDS011;22898;52.102;5.776;2023-09-30T12:56:26;5.90;;;2.05;;
36989;SDS011;22898;52.102;5.776;2023-09-30T12:58:54;6.53;;;2.33;;
36989;SDS011;22898;52.102;5.776;2023-09-30T13:01:20;5.90;;;2.33;;
36989;SDS011;22898;52.102;5.776;2023-09-30T13:03:46;5.90;;;1.90;;
36989;SDS011;22898;52.102;5.776;2023-09-30T13:06:12;4.75;;;1.70;;
36989;SDS011;22898;52.102;5.776;2023-09-30T13:08:38;4.85;;;1.88;;
36989;SDS011;22898;52.102;5.776;2023-09-30T13:11:04;4.30;;;1.90;;
36989;SDS011;22898;52.102;5.776;2023-09-30T13:13:29;5.13;;;1.88;;
36989;SDS011;22898;52.102;5.776;2023-09-30T13:15:58;6.32;;;1.42;;
36989;SDS011;22898;52.102;5.776;2023-09-30T13:18:27;6.90;;;1.80;;
36989;SDS011;22898;52.102;5.776;2023-09-30T13:20:52;7.35;;;1.92;;
36989;SDS011;22898;52.102;5.776;2023-09-30T13:23:18;4.53;;;1.63;;
36989;SDS011;22898;52.102;5.776;2023-09-30T13:25:44;3.13;;;1.40;;
36989;SDS011;22898;52.102;5.776;2023-09-30T13:28:10;5.28;;;1.85;;
36989;SDS011;22898;52.102;5.776;2023-09-30T13:30:35;5.47;;;1.92;;
36989;SDS011;22898;52.102;5.776;2023-09-30T13:33:01;4.95;;;1.60;;
36989;SDS011;22898;52.102;5.776;2023-09-30T13:35:27;4.88;;;1.80;;
36989;SDS011;22898;52.102;5.776;2023-09-30T13:37:52;5.32;;;1.80;;
36989;SDS011;22898;52.102;5.776;2023-09-30T13:40:18;5.25;;;2.00;;
36989;SDS011;22898;52.102;5.776;2023-09-30T13:42:44;5.95;;;1.60;;
36989;SDS011;22898;52.102;5.776;2023-09-30T13:45:10;5.60;;;1.63;;
36989;SDS011;22898;52.102;5.776;2023-09-30T13:47:36;6.95;;;2.15;;
36989;SDS011;22898;52.102;5.776;2023-09-30T13:50:02;8.02;;;1.95;;
36989;SDS011;22898;52.102;5.776;2023-09-30T13:52:33;5.32;;;2.00;;
36989;SDS011;22898;52.102;5.776;2023-09-30T13:54:59;7.18;;;2.30;;
36989;SDS011;22898;52.102;5.776;2023-09-30T13:57:25;4.30;;;1.88;;
36989;SDS011;22898;52.102;5.776;2023-09-30T13:59:50;3.45;;;1.70;;
36989;SDS011;22898;52.102;5.776;2023-09-30T14:02:16;6.03;;;1.55;;
36989;SDS011;22898;52.102;5.776;2023-09-30T14:04:41;3.22;;;1.52;;
36989;SDS011;22898;52.102;5.776;2023-09-30T14:07:07;3.25;;;2.00;;
36989;SDS011;22898;52.102;5.776;2023-09-30T14:09:33;4.30;;;1.85;;
36989;SDS011;22898;52.102;5.776;2023-09-30T14:11:59;8.75;;;2.10;;
36989;SDS011;22898;52.102;5.776;2023-09-30T14:14:25;8.27;;;2.20;;
36989;SDS011;22898;52.102;5.776;2023-09-30T14:16:50;6.57;;;2.92;;
36989;SDS011;22898;52.102;5.776;2023-09-30T14:19:16;5.43;;;2.25;;
36989;SDS011;22898;52.102;5.776;2023-09-30T14:21:42;5.95;;;1.77;;
36989;SDS011;22898;52.102;5.776;2023-09-30T14:24:08;4.93;;;2.45;;
36989;SDS011;22898;52.102;5.776;2023-09-30T14:26:33;6.25;;;2.58;;
36989;SDS011;22898;52.102;5.776;2023-09-30T14:28:59;4.22;;;1.83;;
36989;SDS011;22898;52.102;5.776;2023-09-30T14:31:25;6.47;;;2.40;;
36989;SDS011;22898;52.102;5.776;2023-09-30T14:33:51;5.13;;;1.45;;
36989;SDS011;22898;52.102;5.776;2023-09-30T14:36:17;6.20;;;1.77;;
36989;SDS011;22898;52.102;5.776;2023-09-30T14:38:47;11.05;;;2.33;;
36989;SDS011;22898;52.102;5.776;2023-09-30T14:41:14;5.50;;;1.55;;
36989;SDS011;22898;52.102;5.776;2023-09-30T14:43:41;7.50;;;2.10;;
36989;SDS011;22898;52.102;5.776;2023-09-30T14:46:06;4.63;;;2.10;;
36989;SDS011;22898;52.102;5.776;2023-09-30T14:48:33;8.77;;;2.28;;
36989;SDS011;22898;52.102;5.776;2023-09-30T14:50:59;7.88;;;2.40;;
36989;SDS011;22898;52.102;5.776;2023-09-30T14:53:24;7.28;;;2.65;;
36989;SDS011;22898;52.102;5.776;2023-09-30T14:55:50;5.90;;;2.78;;
36989;SDS011;22898;52.102;5.776;2023-09-30T14:58:16;5.97;;;1.67;;
36989;SDS011;22898;52.102;5.776;2023-09-30T15:00:42;8.20;;;2.30;;
36989;SDS011;22898;52.102;5.776;2023-09-30T15:03:08;7.53;;;1.92;;